Time;durP1;ratioP1;P1;durP2;ratioP2;P2;SDS_P1;SDS_P2;PMS_P1;PMS_P2;Temp;Humidity;BMP_temperature;BMP_pressure;BME280_temperature;BME280_humidity;BME280_pressure;Samples;Min_cycle;Max_cycle;Signal;HPM_P1;HPM_P2
2022/10/08 00:01:03;;;;;;;;;;;12.80;99.90;;;;;;4981528;28;20392;-76
2022/10/08 00:03:31;;;;;;;;;;;12.80;99.90;;;;;;4983516;28;19970;-77
2022/10/08 00:05:59;;;;;;;;;;;12.80;99.90;;;;;;4983268;28;19926;-76
2022/10/08 00:08:28;;;;;;;;;;;12.80;99.90;;;;;;4984433;28;20013;-76
2022/10/08 00:10:55;;;;;;;;;;;12.80;99.90;;;;;;4979125;28;19925;-77
2022/10/08 00:13:22;;;;;;;;;;;12.70;99.90;;;;;;4985647;28;19934;-76
2022/10/08 00:15:49;;;;;;;;;;;12.70;99.90;;;;;;4977552;28;19934;-77
2022/10/08 00:18:16;;;;;;;;;;;12.70;99.90;;;;;;4981772;28;19972;-76
2022/10/08 00:20:42;;;;;;;;;;;12.70;99.90;;;;;;4981721;28;20445;-77
2022/10/08 00:23:09;;;;;;;;;;;12.70;99.90;;;;;;4977948;28;19995;-74
2022/10/08 00:25:41;;;;;;;;;;;12.70;99.90;;;;;;4981251;28;20021;-75
2022/10/08 00:28:08;;;;;;;;;;;12.70;99.90;;;;;;4986829;28;19929;-75
2022/10/08 00:30:36;;;;;;;;;;;12.70;99.90;;;;;;4984502;28;19929;-75
2022/10/08 00:33:03;;;;;;;;;;;12.70;99.90;;;;;;4988757;28;20723;-75
2022/10/08 00:35:29;;;;;;;;;;;12.70;99.90;;;;;;4982960;28;19930;-75
2022/10/08 00:37:56;;;;;;;;;;;12.70;99.90;;;;;;4984695;28;20043;-75
2022/10/08 00:40:24;;;;;;;;;;;12.70;99.90;;;;;;4981934;28;19972;-75
2022/10/08 00:42:52;;;;;;;;;;;12.70;99.90;;;;;;4982886;28;20414;-74
2022/10/08 00:45:19;;;;;;;;;;;12.70;99.90;;;;;;4983206;28;20454;-75
2022/10/08 00:47:47;;;;;;;;;;;12.60;99.90;;;;;;4981185;28;19981;-75
2022/10/08 00:50:16;;;;;;;;;;;12.60;99.90;;;;;;4974916;28;20402;-75
2022/10/08 00:52:44;;;;;;;;;;;12.60;99.90;;;;;;4978374;28;20356;-75
2022/10/08 00:55:12;;;;;;;;;;;12.70;99.90;;;;;;4988155;28;19976;-75
2022/10/08 00:57:39;;;;;;;;;;;12.70;99.90;;;;;;4979395;28;20009;-75
2022/10/08 01:00:09;;;;;;;;;;;12.60;99.90;;;;;;4978403;28;20012;-75
2022/10/08 01:02:36;;;;;;;;;;;12.60;99.90;;;;;;4983322;28;20491;-76
2022/10/08 01:05:04;;;;;;;;;;;12.60;99.90;;;;;;4981738;28;19940;-75
2022/10/08 01:07:34;;;;;;;;;;;12.60;99.90;;;;;;4979976;28;19941;-74
2022/10/08 01:10:06;;;;;;;;;;;12.60;99.90;;;;;;4985037;28;19933;-75
2022/10/08 01:12:36;;;;;;;;;;;12.60;99.90;;;;;;4981201;28;19957;-76
2022/10/08 01:15:07;;;;;;;;;;;12.60;99.90;;;;;;4976103;28;20405;-75
2022/10/08 01:17:38;;;;;;;;;;;12.60;99.90;;;;;;4984564;28;19934;-75
2022/10/08 01:20:15;;;;;;;;;;;12.60;99.90;;;;;;4984294;28;19941;-75
2022/10/08 01:22:54;;;;;;;;;;;12.60;99.90;;;;;;4978738;28;20320;-77
2022/10/08 01:25:34;;;;;;;;;;;12.60;99.90;;;;;;4966088;28;20462;-75
2022/10/08 01:28:09;;;;;;;;;;;12.60;99.90;;;;;;4979131;28;20378;-75
2022/10/08 01:30:37;;;;;;;;;;;12.60;99.90;;;;;;4974028;28;19932;-75
2022/10/08 01:33:11;;;;;;;;;;;12.50;99.90;;;;;;4977898;28;19937;-76
2022/10/08 01:35:43;;;;;;;;;;;12.50;99.90;;;;;;4973256;28;19965;-75
2022/10/08 01:38:12;;;;;;;;;;;12.50;99.90;;;;;;4976467;28;20466;-75
2022/10/08 01:40:41;;;;;;;;;;;12.50;99.90;;;;;;4982790;28;19929;-75
2022/10/08 01:43:11;;;;;;;;;;;12.50;99.90;;;;;;4979218;28;20019;-75
2022/10/08 01:45:40;;;;;;;;;;;12.50;99.90;;;;;;4980990;28;19937;-75
2022/10/08 01:48:10;;;;;;;;;;;12.50;99.90;;;;;;4973238;28;19926;-75
2022/10/08 01:50:39;;;;;;;;;;;12.60;99.90;;;;;;4975968;28;19930;-75
2022/10/08 01:53:09;;;;;;;;;;;12.50;99.90;;;;;;4982950;28;19926;-75
2022/10/08 01:55:37;;;;;;;;;;;12.50;99.90;;;;;;4978735;28;20362;-75
2022/10/08 01:58:06;;;;;;;;;;;12.50;99.90;;;;;;4982831;28;19932;-75
2022/10/08 02:00:35;;;;;;;;;;;12.50;99.90;;;;;;4978961;28;20014;-75
2022/10/08 02:03:02;;;;;;;;;;;12.40;99.90;;;;;;4981948;28;20371;-75
2022/10/08 02:05:31;;;;;;;;;;;12.40;99.90;;;;;;4978113;28;19930;-74
2022/10/08 02:07:57;;;;;;;;;;;12.40;99.90;;;;;;4980423;28;19992;-75
2022/10/08 02:10:25;;;;;;;;;;;12.40;99.90;;;;;;4978293;28;19971;-76
2022/10/08 02:12:52;;;;;;;;;;;12.40;99.90;;;;;;4981200;28;20403;-75
2022/10/08 02:15:21;;;;;;;;;;;12.40;99.90;;;;;;4982383;28;19969;-75
2022/10/08 02:17:53;;;;;;;;;;;12.40;99.90;;;;;;4974400;28;19953;-75
2022/10/08 02:20:21;;;;;;;;;;;12.40;99.90;;;;;;4978967;28;20008;-77
2022/10/08 02:22:52;;;;;;;;;;;12.40;99.90;;;;;;4979219;28;19937;-75
2022/10/08 02:25:22;;;;;;;;;;;12.40;99.90;;;;;;4974626;28;19972;-75
2022/10/08 02:27:53;;;;;;;;;;;12.40;99.90;;;;;;4982928;28;19926;-75
2022/10/08 02:30:20;;;;;;;;;;;12.40;99.90;;;;;;4981185;28;19926;-75
2022/10/08 02:32:49;;;;;;;;;;;12.40;99.90;;;;;;4976354;28;19934;-75
2022/10/08 02:35:21;;;;;;;;;;;12.30;99.90;;;;;;4979272;28;20340;-75
2022/10/08 02:37:53;;;;;;;;;;;12.30;99.90;;;;;;4983965;28;20204;-76
2022/10/08 02:40:20;;;;;;;;;;;12.40;99.90;;;;;;4978308;28;19961;-75
2022/10/08 02:42:51;;;;;;;;;;;12.30;99.90;;;;;;4976325;28;20411;-76
2022/10/08 02:45:20;;;;;;;;;;;12.30;99.90;;;;;;4972197;28;20030;-76
2022/10/08 02:47:50;;;;;;;;;;;12.30;99.90;;;;;;4983109;28;19926;-75
2022/10/08 02:50:21;;;;;;;;;;;12.30;99.90;;;;;;4980890;28;22617;-75
2022/10/08 02:52:49;;;;;;;;;;;12.30;99.90;;;;;;4980269;28;19957;-76
2022/10/08 02:55:22;;;;;;;;;;;12.30;99.90;;;;;;4979663;28;19925;-76
2022/10/08 02:57:52;;;;;;;;;;;12.30;99.90;;;;;;4980498;28;20491;-75
2022/10/08 03:00:19;;;;;;;;;;;12.30;99.90;;;;;;4973156;28;20460;-76
2022/10/08 03:02:49;;;;;;;;;;;12.30;99.90;;;;;;4978486;28;19934;-75
2022/10/08 03:05:17;;;;;;;;;;;12.30;99.90;;;;;;4995492;28;20451;-75
2022/10/08 03:07:46;;;;;;;;;;;12.30;99.90;;;;;;4969094;28;20306;-75
2022/10/08 03:10:13;;;;;;;;;;;12.30;99.90;;;;;;4973406;28;20471;-75
2022/10/08 03:12:40;;;;;;;;;;;12.30;99.90;;;;;;4992972;28;19926;-75
2022/10/08 03:15:10;;;;;;;;;;;12.30;99.90;;;;;;4985273;28;19976;-75
2022/10/08 03:17:38;;;;;;;;;;;12.20;99.90;;;;;;4974475;28;19925;-75
2022/10/08 03:20:06;;;;;;;;;;;12.30;99.90;;;;;;4973394;28;19925;-75
2022/10/08 03:22:33;;;;;;;;;;;12.20;99.90;;;;;;4979150;28;19929;-75
2022/10/08 03:25:01;;;;;;;;;;;12.30;99.90;;;;;;4979878;28;19934;-75
2022/10/08 03:27:28;;;;;;;;;;;12.20;99.90;;;;;;4980771;28;19940;-75
2022/10/08 03:29:56;;;;;;;;;;;12.20;99.90;;;;;;4992567;28;20008;-75
2022/10/08 03:32:23;;;;;;;;;;;12.20;99.90;;;;;;4976212;28;19926;-75
2022/10/08 03:34:50;;;;;;;;;;;12.20;99.90;;;;;;4972936;28;19934;-75
2022/10/08 03:37:17;;;;;;;;;;;12.20;99.90;;;;;;4980127;28;20420;-76
2022/10/08 03:39:44;;;;;;;;;;;12.20;99.90;;;;;;4985685;28;19925;-76
2022/10/08 03:42:12;;;;;;;;;;;12.20;99.90;;;;;;4974830;28;19945;-75
2022/10/08 03:44:40;;;;;;;;;;;12.20;99.90;;;;;;4970088;28;19957;-76
2022/10/08 03:47:07;;;;;;;;;;;12.20;99.90;;;;;;4978368;28;20699;-76
2022/10/08 03:49:34;;;;;;;;;;;12.20;99.90;;;;;;4979067;28;19933;-74
2022/10/08 03:52:01;;;;;;;;;;;12.20;99.90;;;;;;4970868;28;19926;-74
2022/10/08 03:54:28;;;;;;;;;;;12.20;99.90;;;;;;4979904;28;19965;-75
2022/10/08 03:56:54;;;;;;;;;;;12.20;99.90;;;;;;4980794;28;19930;-75
2022/10/08 03:59:22;;;;;;;;;;;12.20;99.90;;;;;;4974826;28;20032;-75
2022/10/08 04:01:49;;;;;;;;;;;12.10;99.90;;;;;;4968490;28;19941;-75
2022/10/08 04:04:16;;;;;;;;;;;12.10;99.90;;;;;;4979318;28;20012;-76
2022/10/08 04:06:43;;;;;;;;;;;12.20;99.90;;;;;;4979964;28;20017;-75
2022/10/08 04:09:10;;;;;;;;;;;12.20;99.90;;;;;;4978447;28;19932;-75
2022/10/08 04:11:36;;;;;;;;;;;12.20;99.90;;;;;;4978894;28;20616;-75
2022/10/08 04:14:03;;;;;;;;;;;12.10;99.90;;;;;;4985196;28;20319;-75
2022/10/08 04:16:31;;;;;;;;;;;12.20;99.90;;;;;;4995905;28;19957;-75
2022/10/08 04:18:58;;;;;;;;;;;12.10;99.90;;;;;;4983306;28;19934;-75
2022/10/08 04:21:25;;;;;;;;;;;12.10;99.90;;;;;;4991463;28;19966;-75
2022/10/08 04:23:52;;;;;;;;;;;12.10;99.90;;;;;;4983090;28;19926;-77
2022/10/08 04:26:19;;;;;;;;;;;12.10;99.90;;;;;;4978630;28;19954;-77
2022/10/08 04:28:46;;;;;;;;;;;12.10;99.90;;;;;;4984215;28;19925;-77
2022/10/08 04:31:15;;;;;;;;;;;12.10;99.90;;;;;;4976587;28;19981;-77
2022/10/08 04:33:43;;;;;;;;;;;12.10;99.90;;;;;;4985665;28;19937;-77
2022/10/08 04:36:11;;;;;;;;;;;12.10;99.90;;;;;;4985690;28;19965;-76
2022/10/08 04:38:38;;;;;;;;;;;12.10;99.90;;;;;;4984965;28;19926;-77
2022/10/08 04:41:06;;;;;;;;;;;12.10;99.90;;;;;;4974465;28;19973;-77
2022/10/08 04:43:32;;;;;;;;;;;12.10;99.90;;;;;;4988246;28;20021;-77
2022/10/08 04:45:59;;;;;;;;;;;12.10;99.90;;;;;;4978383;28;19926;-76
2022/10/08 04:48:26;;;;;;;;;;;12.10;99.90;;;;;;4983808;28;20016;-78
2022/10/08 04:50:58;;;;;;;;;;;12.10;99.90;;;;;;4985097;28;20018;-76
2022/10/08 04:53:25;;;;;;;;;;;12.10;99.90;;;;;;4982231;28;19977;-77
2022/10/08 04:55:52;;;;;;;;;;;12.10;99.90;;;;;;4981062;28;20013;-77
2022/10/08 04:58:19;;;;;;;;;;;12.00;99.90;;;;;;4990422;28;19926;-76
2022/10/08 05:00:46;;;;;;;;;;;12.00;99.90;;;;;;4983546;28;19930;-77
2022/10/08 05:03:13;;;;;;;;;;;12.10;99.90;;;;;;4982111;28;20028;-77
2022/10/08 05:05:40;;;;;;;;;;;12.10;99.90;;;;;;4988869;28;19929;-77
2022/10/08 05:08:08;;;;;;;;;;;12.00;99.90;;;;;;4982519;28;19965;-77
2022/10/08 05:10:35;;;;;;;;;;;12.00;99.90;;;;;;4986981;28;20402;-77
2022/10/08 05:13:03;;;;;;;;;;;12.00;99.90;;;;;;4981613;28;19926;-77
2022/10/08 05:15:29;;;;;;;;;;;12.00;99.90;;;;;;5004130;28;19926;-78
2022/10/08 05:17:56;;;;;;;;;;;12.00;99.90;;;;;;4976525;28;19933;-78
2022/10/08 05:20:23;;;;;;;;;;;12.00;99.90;;;;;;4979077;28;20017;-77
2022/10/08 05:22:50;;;;;;;;;;;12.00;99.90;;;;;;4978901;28;19973;-77
2022/10/08 05:25:18;;;;;;;;;;;12.00;99.90;;;;;;4980829;28;20347;-77
2022/10/08 05:27:45;;;;;;;;;;;12.00;99.90;;;;;;4978709;28;19926;-77
2022/10/08 05:30:12;;;;;;;;;;;12.00;99.90;;;;;;4976713;28;19932;-78
2022/10/08 05:32:38;;;;;;;;;;;12.00;99.90;;;;;;4981742;28;20402;-78
2022/10/08 05:35:05;;;;;;;;;;;11.90;99.90;;;;;;4983698;28;20018;-77
2022/10/08 05:37:33;;;;;;;;;;;12.00;99.90;;;;;;4985475;28;19931;-77
2022/10/08 05:39:59;;;;;;;;;;;12.00;99.90;;;;;;4989319;28;19933;-76
2022/10/08 05:42:28;;;;;;;;;;;12.00;99.90;;;;;;4981824;28;20029;-79
2022/10/08 05:44:54;;;;;;;;;;;12.00;99.90;;;;;;4983183;28;19961;-77
2022/10/08 05:47:21;;;;;;;;;;;12.00;99.90;;;;;;4980264;28;19926;-77
2022/10/08 05:49:48;;;;;;;;;;;12.00;99.90;;;;;;4982106;28;19972;-77
2022/10/08 05:52:15;;;;;;;;;;;12.00;99.90;;;;;;4987110;28;20766;-77
2022/10/08 05:54:41;;;;;;;;;;;12.00;99.90;;;;;;4982400;28;19965;-77
2022/10/08 05:57:08;;;;;;;;;;;12.00;99.90;;;;;;4986234;28;20012;-77
2022/10/08 05:59:36;;;;;;;;;;;12.00;99.90;;;;;;4974533;28;19926;-77
2022/10/08 06:02:03;;;;;;;;;;;12.00;99.90;;;;;;4977689;28;20017;-77
2022/10/08 06:04:30;;;;;;;;;;;12.00;99.90;;;;;;4979447;28;19930;-77
2022/10/08 06:06:57;;;;;;;;;;;12.00;99.90;;;;;;4987119;28;19933;-77
2022/10/08 06:09:24;;;;;;;;;;;12.00;99.90;;;;;;4976140;28;20034;-77
2022/10/08 06:11:51;;;;;;;;;;;12.00;99.90;;;;;;4981944;28;19930;-78
2022/10/08 06:14:19;;;;;;;;;;;12.00;99.90;;;;;;4974598;28;20534;-77
2022/10/08 06:16:47;;;;;;;;;;;12.00;99.90;;;;;;4988584;28;19968;-77
2022/10/08 06:19:14;;;;;;;;;;;12.00;99.90;;;;;;4980048;28;19969;-77
2022/10/08 06:21:40;;;;;;;;;;;12.00;99.90;;;;;;4979137;28;20009;-77
2022/10/08 06:24:09;;;;;;;;;;;12.00;99.90;;;;;;4984400;28;19930;-77
2022/10/08 06:26:36;;;;;;;;;;;12.00;99.90;;;;;;4981734;28;19997;-77
2022/10/08 06:29:04;;;;;;;;;;;11.90;99.90;;;;;;4981259;28;19966;-77
2022/10/08 06:31:31;;;;;;;;;;;11.90;99.90;;;;;;4980661;28;20163;-77
2022/10/08 06:33:59;;;;;;;;;;;11.90;99.90;;;;;;4972502;28;19977;-78
2022/10/08 06:36:27;;;;;;;;;;;11.90;99.90;;;;;;4991364;28;19926;-76
2022/10/08 06:38:54;;;;;;;;;;;11.90;99.90;;;;;;4970861;28;21393;-77
2022/10/08 06:41:22;;;;;;;;;;;11.90;99.90;;;;;;4963610;28;19933;-77
2022/10/08 06:43:49;;;;;;;;;;;11.90;99.90;;;;;;4979832;28;19926;-77
2022/10/08 06:46:16;;;;;;;;;;;12.00;99.90;;;;;;4970774;28;19925;-77
2022/10/08 06:48:43;;;;;;;;;;;11.90;99.90;;;;;;4977410;28;19969;-78
2022/10/08 06:51:12;;;;;;;;;;;12.00;99.90;;;;;;4972898;28;19933;-76
2022/10/08 06:53:40;;;;;;;;;;;12.00;99.90;;;;;;4976413;28;20396;-78
2022/10/08 06:56:09;;;;;;;;;;;11.90;99.90;;;;;;4976176;28;20053;-76
2022/10/08 06:58:36;;;;;;;;;;;11.90;99.90;;;;;;4984968;28;20304;-78
2022/10/08 07:01:05;;;;;;;;;;;11.90;99.90;;;;;;4971383;28;20304;-78
2022/10/08 07:03:32;;;;;;;;;;;11.90;99.90;;;;;;4968659;28;19957;-80
2022/10/08 07:05:59;;;;;;;;;;;11.90;99.90;;;;;;4979660;28;19981;-76
2022/10/08 07:08:28;;;;;;;;;;;11.90;99.90;;;;;;4977371;28;19973;-76
2022/10/08 07:10:54;;;;;;;;;;;11.90;99.90;;;;;;4977396;28;20012;-76
2022/10/08 07:13:21;;;;;;;;;;;11.90;99.90;;;;;;4970571;28;19976;-76
2022/10/08 07:15:48;;;;;;;;;;;11.90;99.90;;;;;;4973705;28;19925;-76
2022/10/08 07:18:15;;;;;;;;;;;11.90;99.90;;;;;;4969865;28;19965;-76
2022/10/08 07:20:42;;;;;;;;;;;11.90;99.90;;;;;;4971631;28;20396;-76
2022/10/08 07:23:17;;;;;;;;;;;11.90;99.90;;;;;;4959594;28;19966;-79
2022/10/08 07:25:54;;;;;;;;;;;11.90;99.90;;;;;;4962529;28;20020;-76
2022/10/08 07:28:20;;;;;;;;;;;11.90;99.90;;;;;;4974058;28;19932;-75
2022/10/08 07:33:32;;;;;;;;;;;11.90;99.90;;;;;;4973108;28;19926;-76
2022/10/08 07:36:05;;;;;;;;;;;11.90;99.90;;;;;;4979109;28;20004;-76
2022/10/08 07:38:32;;;;;;;;;;;12.00;99.90;;;;;;4979574;28;19983;-76
2022/10/08 07:41:00;;;;;;;;;;;11.90;99.90;;;;;;4976146;28;20463;-76
2022/10/08 07:43:27;;;;;;;;;;;11.90;99.90;;;;;;4978371;28;19996;-76
2022/10/08 07:45:54;;;;;;;;;;;11.90;99.90;;;;;;4975579;28;19937;-76
2022/10/08 07:48:21;;;;;;;;;;;11.90;99.90;;;;;;4973457;28;19989;-76
2022/10/08 07:53:37;;;;;;;;;;;11.90;99.90;;;;;;5039648;22;20444;-76
2022/10/08 07:56:05;;;;;;;;;;;11.90;99.90;;;;;;5000520;28;20354;-77
2022/10/08 07:58:32;;;;;;;;;;;11.90;99.90;;;;;;5005834;28;19929;-76
2022/10/08 08:01:00;;;;;;;;;;;11.90;99.90;;;;;;4984333;28;19926;-77
2022/10/08 08:03:27;;;;;;;;;;;12.00;99.90;;;;;;4975303;28;19962;-76
2022/10/08 08:05:54;;;;;;;;;;;12.00;99.90;;;;;;4980027;28;20016;-76
2022/10/08 08:08:22;;;;;;;;;;;12.00;99.90;;;;;;4977483;28;19926;-76
2022/10/08 08:10:49;;;;;;;;;;;12.00;99.90;;;;;;4979003;28;19980;-76
2022/10/08 08:13:17;;;;;;;;;;;12.00;99.90;;;;;;4978272;28;19988;-76
2022/10/08 08:15:44;;;;;;;;;;;12.00;99.90;;;;;;4972126;28;19981;-76
2022/10/08 08:18:11;;;;;;;;;;;12.00;99.90;;;;;;4985741;28;19985;-76
2022/10/08 08:20:37;;;;;;;;;;;12.00;99.90;;;;;;4974909;28;19935;-76
2022/10/08 08:23:04;;;;;;;;;;;12.00;99.90;;;;;;4979159;28;19927;-76
2022/10/08 08:25:32;;;;;;;;;;;12.10;99.90;;;;;;4990080;28;20404;-76
2022/10/08 08:27:59;;;;;;;;;;;12.10;99.90;;;;;;4979072;28;19961;-76
2022/10/08 08:30:27;;;;;;;;;;;12.10;99.90;;;;;;4980383;28;19976;-76
2022/10/08 08:32:54;;;;;;;;;;;12.10;99.90;;;;;;4975736;28;19934;-76
2022/10/08 08:35:21;;;;;;;;;;;12.10;99.90;;;;;;4976241;28;20033;-76
2022/10/08 08:37:48;;;;;;;;;;;12.10;99.90;;;;;;4976208;28;20065;-76
2022/10/08 08:40:14;;;;;;;;;;;12.10;99.90;;;;;;4978003;28;19948;-76
2022/10/08 08:42:50;;;;;;;;;;;12.10;99.90;;;;;;4980867;28;19926;-76
2022/10/08 08:45:25;;;;;;;;;;;12.20;99.90;;;;;;4976387;28;20067;-76
2022/10/08 08:48:01;;;;;;;;;;;12.20;99.90;;;;;;4977086;28;20017;-76
2022/10/08 08:50:29;;;;;;;;;;;12.20;99.90;;;;;;4972612;28;19926;-73
2022/10/08 08:52:56;;;;;;;;;;;12.40;99.90;;;;;;4976933;28;19934;-74
2022/10/08 08:55:29;;;;;;;;;;;12.70;99.90;;;;;;4997367;28;20340;-74
2022/10/08 08:57:57;;;;;;;;;;;12.80;99.90;;;;;;4973066;28;20464;-74
2022/10/08 09:00:29;;;;;;;;;;;12.80;99.90;;;;;;4978291;28;20459;-73
2022/10/08 09:02:58;;;;;;;;;;;12.90;99.90;;;;;;4977933;28;19929;-74
2022/10/08 09:05:25;;;;;;;;;;;12.90;99.90;;;;;;4977751;28;19930;-74
2022/10/08 09:07:55;;;;;;;;;;;12.90;99.90;;;;;;4975840;28;20419;-74
2022/10/08 09:10:36;;;;;;;;;;;12.90;99.90;;;;;;4979888;28;20553;-74
2022/10/08 09:13:03;;;;;;;;;;;13.00;99.90;;;;;;4980482;28;19995;-74
2022/10/08 09:15:32;;;;;;;;;;;13.10;99.90;;;;;;4979757;28;19926;-74
2022/10/08 09:18:01;;;;;;;;;;;13.20;99.90;;;;;;4971733;28;20567;-74
2022/10/08 09:20:29;;;;;;;;;;;13.30;99.90;;;;;;4982160;28;19936;-74
2022/10/08 09:22:56;;;;;;;;;;;13.30;99.90;;;;;;4981388;28;19926;-74
2022/10/08 09:25:24;;;;;;;;;;;13.40;99.90;;;;;;4973032;28;19934;-74
2022/10/08 09:27:52;;;;;;;;;;;13.50;99.90;;;;;;4969372;28;19933;-74
2022/10/08 09:30:29;;;;;;;;;;;13.40;99.90;;;;;;4973965;28;19934;-74
2022/10/08 09:32:57;;;;;;;;;;;13.50;99.90;;;;;;4971690;28;20029;-74
2022/10/08 09:35:25;;;;;;;;;;;13.50;99.90;;;;;;4972336;28;20139;-74
2022/10/08 09:37:52;;;;;;;;;;;13.60;99.90;;;;;;4993696;28;20376;-74
2022/10/08 09:40:21;;;;;;;;;;;13.60;99.90;;;;;;4976385;28;19932;-74
2022/10/08 09:43:02;;;;;;;;;;;13.70;99.90;;;;;;4979119;28;19929;-74
2022/10/08 09:45:31;;;;;;;;;;;13.80;99.90;;;;;;4967786;28;19938;-74
2022/10/08 09:48:16;;;;;;;;;;;13.70;99.90;;;;;;4978822;28;19942;-74
2022/10/08 09:50:48;;;;;;;;;;;13.70;99.90;;;;;;4975171;28;19930;-74
2022/10/08 09:53:15;;;;;;;;;;;13.60;99.90;;;;;;4972523;28;20031;-74
2022/10/08 09:55:48;;;;;;;;;;;13.60;99.90;;;;;;4969608;28;19937;-74
2022/10/08 09:58:18;;;;;;;;;;;13.50;99.90;;;;;;4973923;28;20074;-74
2022/10/08 10:00:45;;;;;;;;;;;13.60;99.90;;;;;;4973060;28;19960;-75
2022/10/08 10:03:16;;;;;;;;;;;13.60;99.90;;;;;;4969233;28;19941;-74
2022/10/08 10:05:43;;;;;;;;;;;13.60;99.90;;;;;;4973638;28;20017;-74
2022/10/08 10:08:35;;;;;;;;;;;13.60;99.90;;;;;;4974126;28;20395;-74
2022/10/08 10:11:02;;;;;;;;;;;13.60;99.90;;;;;;4974838;28;19997;-74
2022/10/08 10:13:31;;;;;;;;;;;13.60;99.90;;;;;;4977462;28;19952;-74
2022/10/08 10:16:00;;;;;;;;;;;13.70;99.90;;;;;;4977013;28;19988;-74
2022/10/08 10:18:30;;;;;;;;;;;13.70;99.90;;;;;;4974332;28;20480;-74
2022/10/08 10:20:58;;;;;;;;;;;13.70;99.90;;;;;;4978399;28;19936;-74
2022/10/08 10:23:29;;;;;;;;;;;13.70;99.90;;;;;;4972364;28;20020;-74
2022/10/08 10:25:58;;;;;;;;;;;13.70;99.90;;;;;;4973400;28;19926;-74
2022/10/08 10:28:33;;;;;;;;;;;13.70;99.90;;;;;;4973632;28;20218;-73
2022/10/08 10:31:03;;;;;;;;;;;13.70;99.90;;;;;;4973028;28;19930;-73
2022/10/08 10:33:32;;;;;;;;;;;13.80;99.90;;;;;;4975712;28;19934;-73
2022/10/08 10:36:00;;;;;;;;;;;13.80;99.90;;;;;;4978643;28;19963;-73
2022/10/08 10:38:29;;;;;;;;;;;13.80;99.90;;;;;;4976785;28;20276;-73
2022/10/08 10:41:04;;;;;;;;;;;13.80;99.90;;;;;;4978939;28;19961;-73
2022/10/08 10:43:36;;;;;;;;;;;13.80;99.90;;;;;;4978266;28;19926;-73
2022/10/08 10:46:09;;;;;;;;;;;13.70;99.90;;;;;;4973440;28;20059;-73
2022/10/08 10:48:36;;;;;;;;;;;13.80;99.90;;;;;;4982548;28;19930;-73
2022/10/08 10:51:10;;;;;;;;;;;13.90;99.90;;;;;;4996459;28;20586;-73
2022/10/08 10:53:45;;;;;;;;;;;13.80;99.90;;;;;;4976113;28;20009;-73
2022/10/08 10:56:13;;;;;;;;;;;13.80;99.90;;;;;;4970717;28;20340;-73
2022/10/08 10:58:45;;;;;;;;;;;13.90;99.90;;;;;;4970754;28;19980;-73
2022/10/08 11:01:20;;;;;;;;;;;13.90;99.90;;;;;;4979845;28;19936;-73
2022/10/08 11:03:52;;;;;;;;;;;13.90;99.90;;;;;;4990282;28;19934;-73
2022/10/08 11:06:52;;;;;;;;;;;13.90;99.90;;;;;;4973710;28;19930;-75
2022/10/08 11:09:26;;;;;;;;;;;13.90;99.90;;;;;;4933552;28;19926;-74
2022/10/08 11:11:54;;;;;;;;;;;14.00;99.90;;;;;;4929881;28;20538;-75
2022/10/08 11:14:35;;;;;;;;;;;13.90;99.90;;;;;;4952230;28;20088;-74
2022/10/08 11:17:06;;;;;;;;;;;14.00;99.90;;;;;;4973990;28;20544;-73
2022/10/08 11:19:40;;;;;;;;;;;14.00;99.90;;;;;;4974569;28;19930;-73
2022/10/08 11:22:10;;;;;;;;;;;14.00;99.90;;;;;;4976109;28;20466;-73
2022/10/08 11:24:52;;;;;;;;;;;14.00;99.90;;;;;;4974689;28;20409;-73
2022/10/08 11:27:24;;;;;;;;;;;14.10;99.90;;;;;;4978499;28;19941;-73
2022/10/08 11:29:55;;;;;;;;;;;14.10;99.90;;;;;;4988578;28;19988;-73
2022/10/08 11:32:22;;;;;;;;;;;14.10;99.90;;;;;;4968314;28;20424;-73
2022/10/08 11:34:52;;;;;;;;;;;14.20;99.90;;;;;;4986935;28;19929;-73
2022/10/08 11:37:21;;;;;;;;;;;14.20;99.90;;;;;;4984002;28;19926;-74
2022/10/08 11:39:55;;;;;;;;;;;14.20;99.90;;;;;;4975938;28;20025;-74
2022/10/08 11:42:25;;;;;;;;;;;14.20;99.90;;;;;;4980298;28;19961;-74
2022/10/08 11:44:51;;;;;;;;;;;14.20;99.90;;;;;;4972863;28;19930;-73
2022/10/08 11:47:47;;;;;;;;;;;14.20;99.90;;;;;;4977507;28;20354;-73
2022/10/08 11:50:22;;;;;;;;;;;14.30;99.90;;;;;;4974210;28;20343;-73
2022/10/08 11:52:49;;;;;;;;;;;14.30;99.90;;;;;;4971832;28;20515;-74
2022/10/08 11:55:20;;;;;;;;;;;14.30;99.90;;;;;;4976392;28;21005;-73
2022/10/08 11:57:54;;;;;;;;;;;14.30;99.90;;;;;;4976676;28;19929;-73
2022/10/08 12:00:26;;;;;;;;;;;14.30;99.90;;;;;;4973525;28;20288;-79
2022/10/08 12:02:54;;;;;;;;;;;14.40;99.90;;;;;;4980538;28;19937;-74
2022/10/08 12:05:32;;;;;;;;;;;14.40;99.90;;;;;;4965322;28;20362;-73
2022/10/08 12:08:01;;;;;;;;;;;14.40;99.90;;;;;;4964363;28;20615;-73
2022/10/08 12:10:32;;;;;;;;;;;14.50;99.90;;;;;;4972631;28;21715;-73
2022/10/08 12:13:04;;;;;;;;;;;14.60;99.90;;;;;;4980445;28;19926;-73
2022/10/08 12:15:55;;;;;;;;;;;14.50;99.90;;;;;;4974947;28;20332;-73
2022/10/08 12:18:52;;;;;;;;;;;14.50;99.90;;;;;;4962240;28;19926;-73
2022/10/08 12:21:35;;;;;;;;;;;14.50;99.90;;;;;;4970760;28;19934;-76
2022/10/08 12:24:02;;;;;;;;;;;14.50;99.90;;;;;;4971737;28;19930;-73
2022/10/08 12:26:30;;;;;;;;;;;14.40;99.90;;;;;;4976115;28;19971;-73
2022/10/08 12:28:58;;;;;;;;;;;14.40;99.90;;;;;;4979582;28;19925;-73
2022/10/08 12:31:30;;;;;;;;;;;14.40;99.90;;;;;;4975423;28;20032;-73
2022/10/08 12:33:58;;;;;;;;;;;14.40;99.90;;;;;;4976298;28;19925;-73
2022/10/08 12:36:34;;;;;;;;;;;14.40;99.90;;;;;;4995027;28;19972;-73
2022/10/08 12:39:03;;;;;;;;;;;14.40;99.90;;;;;;4978354;28;19976;-73
2022/10/08 12:41:34;;;;;;;;;;;14.40;99.90;;;;;;4980850;28;20029;-73
2022/10/08 12:44:03;;;;;;;;;;;14.50;99.90;;;;;;4981247;28;19961;-73
2022/10/08 12:46:35;;;;;;;;;;;14.40;99.90;;;;;;4974239;28;20000;-73
2022/10/08 12:49:04;;;;;;;;;;;14.50;99.90;;;;;;4979471;28;19989;-73
2022/10/08 12:51:35;;;;;;;;;;;14.50;99.90;;;;;;4977918;28;19965;-73
2022/10/08 12:54:03;;;;;;;;;;;14.50;99.90;;;;;;4978745;28;19926;-73
2022/10/08 12:56:31;;;;;;;;;;;14.50;99.90;;;;;;4969917;28;20511;-73
2022/10/08 12:59:01;;;;;;;;;;;14.50;99.90;;;;;;4973379;28;19945;-73
2022/10/08 13:01:28;;;;;;;;;;;14.50;99.90;;;;;;4970292;28;20051;-74
2022/10/08 13:04:08;;;;;;;;;;;14.50;99.90;;;;;;4975955;28;20054;-77
2022/10/08 13:06:35;;;;;;;;;;;14.50;99.90;;;;;;4975823;28;19969;-73
2022/10/08 13:09:12;;;;;;;;;;;14.50;99.90;;;;;;4978011;28;19944;-73
2022/10/08 13:11:41;;;;;;;;;;;14.60;99.90;;;;;;4993520;28;19936;-73
2022/10/08 13:14:21;;;;;;;;;;;14.60;99.90;;;;;;4983844;28;20052;-73
2022/10/08 13:16:48;;;;;;;;;;;14.60;99.90;;;;;;4979832;28;19926;-73
2022/10/08 13:19:17;;;;;;;;;;;14.60;99.90;;;;;;4977216;28;19968;-73
2022/10/08 13:21:53;;;;;;;;;;;14.60;99.90;;;;;;4979749;28;20030;-73
2022/10/08 13:24:31;;;;;;;;;;;14.60;99.90;;;;;;4977596;28;20021;-73
2022/10/08 13:26:59;;;;;;;;;;;14.60;99.90;;;;;;4978692;28;20377;-73
2022/10/08 13:29:27;;;;;;;;;;;14.60;99.90;;;;;;4974338;28;20508;-73
2022/10/08 13:31:55;;;;;;;;;;;14.60;99.90;;;;;;4976579;28;20017;-73
2022/10/08 13:34:22;;;;;;;;;;;14.70;99.90;;;;;;4979141;28;19930;-74
2022/10/08 13:36:51;;;;;;;;;;;14.60;99.90;;;;;;4978326;28;20015;-73
2022/10/08 13:39:22;;;;;;;;;;;14.60;99.90;;;;;;4973781;28;19941;-73
2022/10/08 13:41:54;;;;;;;;;;;14.60;99.90;;;;;;4976404;28;20272;-74
2022/10/08 13:44:22;;;;;;;;;;;14.60;99.90;;;;;;4981195;28;19930;-75
2022/10/08 13:46:49;;;;;;;;;;;14.60;99.90;;;;;;4968638;28;19933;-73
2022/10/08 13:49:20;;;;;;;;;;;14.60;99.90;;;;;;4973428;28;20308;-73
2022/10/08 13:51:47;;;;;;;;;;;14.70;99.90;;;;;;4978677;28;20289;-73
2022/10/08 13:54:17;;;;;;;;;;;14.70;99.90;;;;;;4975767;28;19933;-73
2022/10/08 13:56:44;;;;;;;;;;;14.70;99.90;;;;;;4976098;28;20385;-82
2022/10/08 13:59:11;;;;;;;;;;;14.70;99.90;;;;;;5000737;28;19941;-73
2022/10/08 14:01:39;;;;;;;;;;;14.70;99.90;;;;;;4976982;28;19969;-80
2022/10/08 14:04:06;;;;;;;;;;;14.70;99.90;;;;;;4974923;28;19929;-76
2022/10/08 14:06:33;;;;;;;;;;;14.70;99.90;;;;;;4973574;28;19933;-76
2022/10/08 14:09:00;;;;;;;;;;;14.70;99.90;;;;;;4986429;28;19936;-77
2022/10/08 14:11:27;;;;;;;;;;;14.70;99.90;;;;;;4970632;28;19926;-77
2022/10/08 14:13:54;;;;;;;;;;;14.70;99.90;;;;;;4979282;28;20041;-76
2022/10/08 14:16:20;;;;;;;;;;;14.70;99.90;;;;;;4978211;28;19930;-75
2022/10/08 14:18:49;;;;;;;;;;;14.70;99.90;;;;;;4987553;28;19930;-77
2022/10/08 14:21:16;;;;;;;;;;;14.70;99.90;;;;;;4975252;28;19932;-78
2022/10/08 14:23:44;;;;;;;;;;;14.70;99.90;;;;;;4969157;28;19926;-74
2022/10/08 14:26:11;;;;;;;;;;;14.70;99.90;;;;;;4971787;28;19957;-74
2022/10/08 14:28:38;;;;;;;;;;;14.70;99.90;;;;;;4978144;28;19926;-75
2022/10/08 14:31:05;;;;;;;;;;;14.70;99.90;;;;;;4980159;28;19933;-74
2022/10/08 14:33:32;;;;;;;;;;;14.70;99.90;;;;;;4977252;28;20277;-74